Time;durP1;ratioP1;P1;durP2;ratioP2;P2;SDS_P1;SDS_P2;PMS_P1;PMS_P2;Temp;Humidity;BMP_temperature;BMP_pressure;BME280_temperature;BME280_humidity;BME280_pressure;Samples;Min_cycle;Max_cycle;Signal;HPM_P1;HPM_P2
2022/07/27 00:00:19;;;;;;;13.85;7.68;;;;;;;24.39;38.84;93488.78;5069045;28;20610;-83
2022/07/27 00:02:45;;;;;;;10.45;7.50;;;;;;;24.21;39.34;93461.81;5070142;28;20028;-83
2022/07/27 00:05:10;;;;;;;8.93;7.82;;;;;;;24.11;39.39;93457.28;5065512;28;20618;-84
2022/07/27 00:07:36;;;;;;;8.75;7.78;;;;;;;24.29;39.06;93484.25;5067624;28;20024;-84
2022/07/27 00:10:02;;;;;;;9.13;8.18;;;;;;;24.32;38.92;93478.75;5070323;28;20298;-84
2022/07/27 00:12:27;;;;;;;9.40;7.30;;;;;;;24.18;39.32;93468.09;5069047;28;20028;-82
2022/07/27 00:14:53;;;;;;;9.02;6.88;;;;;;;24.16;39.30;93475.09;5068988;28;20027;-82
2022/07/27 00:17:22;;;;;;;10.40;8.05;;;;;;;24.05;39.40;93469.00;5073043;28;20604;-84
2022/07/27 00:19:48;;;;;;;8.07;7.22;;;;;;;24.03;39.91;93488.41;5070886;28;20024;-84
2022/07/27 00:22:14;;;;;;;9.80;6.70;;;;;;;23.94;40.44;93477.28;5067054;28;20017;-80
2022/07/27 00:24:39;;;;;;;8.70;7.35;;;;;;;23.84;40.23;93468.06;5066816;28;20027;-84
2022/07/27 00:27:06;;;;;;;8.93;7.57;;;;;;;23.88;39.94;93485.09;5069202;28;20024;-83
2022/07/27 00:29:31;;;;;;;8.35;7.30;;;;;;;23.91;40.16;93492.41;5070067;28;20167;-82
2022/07/27 00:31:56;;;;;;;10.10;7.28;;;;;;;23.89;40.15;93505.66;5073897;28;20383;-83
2022/07/27 00:34:22;;;;;;;9.90;7.35;;;;;;;23.92;39.98;93510.25;5069096;28;20439;-83
2022/07/27 00:36:47;;;;;;;7.90;7.10;;;;;;;23.86;40.13;93495.56;5068680;28;20028;-83
2022/07/27 00:39:13;;;;;;;8.02;7.10;;;;;;;23.84;40.39;93510.75;5066349;28;20028;-83
2022/07/27 00:41:38;;;;;;;8.00;6.30;;;;;;;23.82;40.97;93516.56;5067968;28;20521;-81
2022/07/27 00:44:05;;;;;;;10.73;7.93;;;;;;;23.58;40.72;93493.16;5068628;28;20025;-83
2022/07/27 00:46:31;;;;;;;9.88;7.78;;;;;;;23.76;40.74;93526.31;5069010;28;20044;-83
2022/07/27 00:48:57;;;;;;;9.05;7.72;;;;;;;23.79;40.50;93522.03;5068507;28;20047;-83
2022/07/27 00:51:23;;;;;;;8.68;7.78;;;;;;;23.83;40.58;93518.13;5068353;28;20466;-83
2022/07/27 00:53:51;;;;;;;11.70;8.32;;;;;;;23.89;40.38;93521.94;5069614;28;20032;-83
2022/07/27 00:56:17;;;;;;;9.88;7.68;;;;;;;23.75;40.40;93507.75;5066191;28;20825;-82
2022/07/27 00:58:47;;;;;;;10.93;8.13;;;;;;;23.86;40.45;93520.00;5067419;28;20431;-83
2022/07/27 01:01:13;;;;;;;10.48;7.40;;;;;;;23.72;40.50;93512.03;5067268;28;20040;-82
2022/07/27 01:03:38;;;;;;;9.50;8.40;;;;;;;23.70;40.54;93497.31;5070822;28;20073;-84
2022/07/27 01:06:04;;;;;;;8.70;7.57;;;;;;;23.70;40.43;93497.31;5071892;28;20428;-82
2022/07/27 01:08:29;;;;;;;8.90;7.22;;;;;;;23.69;40.49;93496.56;5074639;28;20008;-83
2022/07/27 01:10:56;;;;;;;9.57;8.15;;;;;;;23.78;40.50;93499.56;5070509;28;20035;-83
2022/07/27 01:13:23;;;;;;;10.20;7.80;;;;;;;23.84;40.08;93505.31;5073072;28;20522;-83
2022/07/27 01:15:50;;;;;;;9.32;7.63;;;;;;;23.70;40.02;93503.53;5072229;28;20114;-83
2022/07/27 01:18:30;;;;;;;10.07;8.35;;;;;;;23.68;40.05;93505.84;5071795;28;20534;-83
2022/07/27 01:20:56;;;;;;;10.30;7.93;;;;;;;23.66;40.69;93512.88;5070996;28;20068;-84
2022/07/27 01:23:26;;;;;;;9.00;7.82;;;;;;;23.58;40.85;93518.38;5072812;28;20734;-83
2022/07/27 01:25:52;;;;;;;9.18;7.70;;;;;;;23.32;41.12;93520.91;5070484;28;20034;-82
2022/07/27 01:28:18;;;;;;;10.85;8.52;;;;;;;23.36;41.38;93513.50;5072320;28;20016;-83
2022/07/27 01:30:43;;;;;;;11.38;8.32;;;;;;;23.08;41.51;93493.56;5071921;28;20081;-83
2022/07/27 01:33:09;;;;;;;9.63;8.10;;;;;;;23.02;42.36;93530.44;5071796;28;20035;-83
2022/07/27 01:35:36;;;;;;;9.85;7.82;;;;;;;22.95;42.21;93522.34;5069840;28;20621;-82
2022/07/27 01:38:02;;;;;;;9.38;7.95;;;;;;;23.02;42.09;93513.41;5072487;28;20032;-83
2022/07/27 01:40:28;;;;;;;11.35;8.25;;;;;;;23.14;42.29;93513.69;5072043;28;20027;-83
2022/07/27 01:42:53;;;;;;;11.13;8.35;;;;;;;23.23;42.29;93523.28;5070778;28;20032;-82
2022/07/27 01:45:19;;;;;;;10.32;8.95;;;;;;;23.23;42.28;93531.44;5074738;28;20506;-84
2022/07/27 01:47:44;;;;;;;9.80;7.90;;;;;;;23.19;42.61;93523.31;5071328;28;20395;-83
2022/07/27 01:50:10;;;;;;;10.30;8.60;;;;;;;23.10;42.63;93512.94;5071865;28;20127;-82
2022/07/27 01:52:38;;;;;;;10.57;8.63;;;;;;;23.10;42.88;93509.47;5071740;28;20023;-83
2022/07/27 01:55:05;;;;;;;11.10;8.75;;;;;;;23.08;43.07;93528.06;5069376;28;20024;-82
2022/07/27 01:57:30;;;;;;;10.30;8.30;;;;;;;22.89;43.72;93515.03;5070974;28;20103;-82
2022/07/27 01:59:56;;;;;;;11.20;8.23;;;;;;;22.67;44.33;93503.53;5070350;28;20127;-83
2022/07/27 02:02:21;;;;;;;12.80;8.50;;;;;;;22.78;43.73;93503.47;5073721;28;20393;-83
2022/07/27 02:04:46;;;;;;;12.10;8.45;;;;;;;22.93;42.77;93502.97;5068864;28;20031;-82
2022/07/27 02:07:12;;;;;;;9.18;7.82;;;;;;;23.04;42.63;93517.25;5070751;28;20595;-83
2022/07/27 02:09:37;;;;;;;11.20;8.52;;;;;;;23.00;43.09;93532.00;5070971;28;20402;-83
2022/07/27 02:14:47;;;;;;;10.00;8.02;;;;;;;22.86;43.38;93535.59;5070380;28;20034;-83
2022/07/27 02:17:12;;;;;;;10.02;8.02;;;;;;;22.82;43.04;93515.06;5070375;28;20558;-82
2022/07/27 02:19:37;;;;;;;13.02;8.50;;;;;;;22.91;42.65;93532.44;5072840;28;20055;-83
2022/07/27 02:22:03;;;;;;;8.57;7.70;;;;;;;22.75;42.98;93494.19;5070349;28;20474;-83
2022/07/27 02:24:28;;;;;;;9.57;8.50;;;;;;;23.05;42.88;93540.50;5070200;28;20094;-83
2022/07/27 02:26:53;;;;;;;12.73;9.07;;;;;;;22.88;42.98;93524.34;5069517;28;20027;-82
2022/07/27 02:29:19;;;;;;;9.82;8.20;;;;;;;22.68;43.16;93507.78;5070542;28;20028;-83
2022/07/27 02:31:45;;;;;;;13.38;8.90;;;;;;;22.78;43.53;93523.19;5071182;28;20471;-83
2022/07/27 02:34:10;;;;;;;13.32;8.63;;;;;;;22.72;42.99;93505.81;5069693;28;21183;-82
2022/07/27 02:36:36;;;;;;;9.20;7.88;;;;;;;22.54;43.45;93537.66;5071036;28;20257;-82
2022/07/27 02:39:01;;;;;;;10.30;7.95;;;;;;;22.68;43.04;93522.09;5070966;28;20482;-83
2022/07/27 02:41:27;;;;;;;10.50;7.53;;;;;;;22.93;42.51;93537.47;5069668;28;20020;-83
2022/07/27 02:43:52;;;;;;;11.25;7.85;;;;;;;22.92;42.36;93525.09;5071890;28;20024;-82
2022/07/27 02:46:17;;;;;;;9.48;7.63;;;;;;;22.78;42.92;93534.03;5070128;28;20106;-83
2022/07/27 02:48:43;;;;;;;10.20;7.47;;;;;;;22.72;41.14;93535.66;5069503;28;20078;-82
2022/07/27 02:51:08;;;;;;;9.45;6.72;;;;;;;22.45;40.76;93540.03;5070091;28;20498;-83
2022/07/27 02:53:33;;;;;;;6.97;6.22;;;;;;;22.38;40.38;93518.41;5067967;28;20077;-82
2022/07/27 02:55:59;;;;;;;7.60;6.57;;;;;;;22.74;40.01;93538.72;5074631;28;20029;-81
2022/07/27 02:58:24;;;;;;;8.05;6.25;;;;;;;22.86;39.87;93546.44;5069986;28;20029;-81
2022/07/27 03:00:51;;;;;;;11.27;6.53;;;;;;;22.92;40.35;93541.38;5068592;28;20372;-82
2022/07/27 03:03:16;;;;;;;10.80;6.70;;;;;;;23.02;40.14;93554.84;5066239;28;20024;-83
2022/07/27 03:05:42;;;;;;;9.10;6.70;;;;;;;23.03;39.96;93542.03;5073104;28;20017;-83
2022/07/27 03:08:08;;;;;;;8.65;7.20;;;;;;;23.05;40.79;93556.75;5067496;28;20068;-83
2022/07/27 03:10:33;;;;;;;7.80;6.13;;;;;;;23.02;41.27;93552.16;5066582;28;20066;-82
2022/07/27 03:12:59;;;;;;;8.45;6.75;;;;;;;23.07;40.84;93559.81;5070069;28;20450;-84
2022/07/27 03:15:24;;;;;;;9.23;6.55;;;;;;;23.21;40.04;93564.41;5069344;28;20055;-83
2022/07/27 03:17:50;;;;;;;9.40;7.03;;;;;;;23.01;40.42;93538.97;5070207;28;20058;-82
2022/07/27 03:20:15;;;;;;;6.20;5.60;;;;;;;23.04;40.61;93544.38;5069953;28;20025;-83
2022/07/27 03:22:41;;;;;;;8.20;6.53;;;;;;;23.10;40.06;93544.72;5067900;28;20463;-82
2022/07/27 03:25:08;;;;;;;11.43;6.43;;;;;;;23.20;40.02;93575.66;5070895;28;20020;-83
2022/07/27 03:27:34;;;;;;;9.10;7.07;;;;;;;23.32;39.90;93572.47;5066456;28;20383;-83
2022/07/27 03:29:59;;;;;;;7.97;6.53;;;;;;;23.33;40.40;93568.56;5069503;28;20162;-83
2022/07/27 03:32:25;;;;;;;7.82;6.63;;;;;;;23.25;40.57;93554.28;5067612;28;20035;-83
2022/07/27 03:34:50;;;;;;;8.88;6.65;;;;;;;23.39;40.79;93564.25;5073218;28;20398;-82
2022/07/27 03:37:17;;;;;;;7.53;6.35;;;;;;;23.28;41.02;93547.28;5068796;28;20019;-83
2022/07/27 03:39:43;;;;;;;8.13;6.68;;;;;;;23.44;40.71;93567.31;5070649;28;20162;-82
2022/07/27 03:42:09;;;;;;;8.95;6.90;;;;;;;23.23;41.08;93550.41;5069289;28;20024;-81
2022/07/27 03:44:34;;;;;;;12.13;6.75;;;;;;;23.15;41.30;93549.72;5068672;28;20081;-83
2022/07/27 03:46:59;;;;;;;8.98;6.50;;;;;;;23.19;41.68;93552.41;5070871;28;20044;-83
2022/07/27 03:49:25;;;;;;;8.85;7.05;;;;;;;23.20;41.63;93562.84;5069205;28;20035;-83
2022/07/27 03:51:50;;;;;;;11.35;6.72;;;;;;;23.11;41.85;93563.31;5069350;28;20527;-83
2022/07/27 03:54:16;;;;;;;9.38;6.93;;;;;;;23.09;42.30;93556.72;5070464;28;20024;-79
2022/07/27 03:56:42;;;;;;;10.93;6.82;;;;;;;23.17;42.68;93574.50;5069712;28;20474;-83
2022/07/27 03:59:08;;;;;;;7.00;6.30;;;;;;;23.17;41.93;93561.69;5070070;28;20128;-83
2022/07/27 04:01:34;;;;;;;8.82;6.75;;;;;;;23.23;42.15;93562.03;5067107;28;20666;-82
2022/07/27 04:03:59;;;;;;;8.50;7.00;;;;;;;23.17;42.86;93554.75;5074264;28;20680;-83
2022/07/27 04:06:24;;;;;;;8.20;6.28;;;;;;;23.17;41.47;93557.47;5074739;28;20020;-81
2022/07/27 04:08:50;;;;;;;8.82;7.00;;;;;;;23.43;41.34;93581.28;5070936;28;20427;-83
2022/07/27 04:11:15;;;;;;;9.88;6.65;;;;;;;23.41;41.30;93556.50;5066180;28;20028;-83
2022/07/27 04:13:42;;;;;;;7.85;6.05;;;;;;;23.50;41.24;93543.25;5068165;28;20505;-83
2022/07/27 04:16:08;;;;;;;6.90;6.05;;;;;;;23.56;41.76;93542.41;5066354;28;20030;-83
2022/07/27 04:18:33;;;;;;;9.38;7.22;;;;;;;23.86;41.03;93582.47;5067251;28;20067;-83
2022/07/27 04:21:02;;;;;;;11.77;6.35;;;;;;;23.96;41.12;93575.41;5069637;28;20146;-82
2022/07/27 04:23:28;;;;;;;9.48;6.28;;;;;;;24.05;40.75;93577.66;5068922;28;20438;-83
2022/07/27 04:25:53;;;;;;;9.32;6.50;;;;;;;24.09;40.69;93583.81;5068422;28;20028;-83
2022/07/27 04:28:19;;;;;;;7.95;5.70;;;;;;;24.22;40.20;93587.59;5064985;28;20016;-82
2022/07/27 04:30:44;;;;;;;7.72;5.45;;;;;;;24.35;40.41;93588.59;5066605;28;20437;-78
2022/07/27 04:33:10;;;;;;;6.60;5.35;;;;;;;23.95;39.92;93585.47;5066148;28;20028;-83
2022/07/27 04:35:35;;;;;;;9.48;7.32;;;;;;;23.65;39.94;93581.91;5069067;28;20019;-82
2022/07/27 04:38:01;;;;;;;8.32;6.43;;;;;;;23.12;41.05;93572.97;5068230;28;20387;-81
2022/07/27 04:40:31;;;;;;;8.48;4.90;;;;;;;22.65;42.47;93579.81;5067011;28;20411;-81
2022/07/27 04:42:56;;;;;;;11.30;5.43;;;;;;;22.70;42.55;93576.69;5068884;28;20030;-81
2022/07/27 04:45:21;;;;;;;8.23;5.47;;;;;;;22.62;43.20;93596.09;5069021;28;20110;-81
2022/07/27 04:47:47;;;;;;;10.65;5.07;;;;;;;22.24;43.81;93576.13;5068435;28;20554;-80
2022/07/27 04:50:14;;;;;;;8.10;5.53;;;;;;;22.28;43.94;93580.38;5065844;28;20349;-80
2022/07/27 04:52:39;;;;;;;6.93;4.50;;;;;;;22.50;43.91;93591.09;5068456;28;20031;-80
2022/07/27 04:55:05;;;;;;;8.00;5.15;;;;;;;22.73;43.52;93605.72;5067794;28;20035;-79
2022/07/27 04:57:30;;;;;;;6.93;5.28;;;;;;;22.57;43.60;93620.91;5068337;28;20020;-80
2022/07/27 04:59:55;;;;;;;7.18;5.32;;;;;;;22.38;43.72;93594.25;5066733;28;20020;-80
2022/07/27 05:02:21;;;;;;;8.20;5.38;;;;;;;22.33;44.28;93597.38;5067356;28;20040;-80
2022/07/27 05:04:46;;;;;;;9.98;5.10;;;;;;;22.68;43.78;93614.25;5064557;28;20036;-79
2022/07/27 05:07:12;;;;;;;9.30;5.10;;;;;;;22.67;44.05;93606.53;5064728;28;20040;-79
2022/07/27 05:09:37;;;;;;;8.30;5.15;;;;;;;22.96;43.08;93613.38;5067779;28;20515;-80
2022/07/27 05:12:03;;;;;;;11.40;6.38;;;;;;;22.90;43.75;93620.38;5066399;28;20071;-78
2022/07/27 05:14:28;;;;;;;7.78;4.80;;;;;;;22.99;43.76;93634.28;5066137;28;20059;-80
2022/07/27 05:16:53;;;;;;;7.20;5.70;;;;;;;23.00;43.57;93624.97;5067207;28;20650;-80
2022/07/27 05:19:19;;;;;;;7.53;5.43;;;;;;;22.59;44.27;93618.56;5068575;28;20099;-80
2022/07/27 05:21:44;;;;;;;9.38;5.45;;;;;;;22.42;44.59;93619.41;5069257;28;20030;-80
2022/07/27 05:24:09;;;;;;;6.30;5.18;;;;;;;22.25;45.20;93610.16;5066398;28;20016;-80
2022/07/27 05:26:36;;;;;;;14.25;5.20;;;;;;;22.21;45.99;93612.06;5065684;28;20504;-81
2022/07/27 05:29:01;;;;;;;8.10;5.30;;;;;;;22.45;45.55;93632.94;5064573;28;20498;-82
2022/07/27 05:31:27;;;;;;;7.63;4.90;;;;;;;22.44;45.87;93625.22;5066555;28;20054;-81
2022/07/27 05:33:52;;;;;;;10.82;5.25;;;;;;;22.89;45.36;93637.81;5065349;28;20039;-80
2022/07/27 05:36:17;;;;;;;7.57;4.53;;;;;;;23.11;44.28;93627.63;5066536;28;20128;-82
2022/07/27 05:38:43;;;;;;;5.50;4.72;;;;;;;23.12;44.04;93610.94;5064050;28;20567;-79
2022/07/27 05:41:09;;;;;;;6.60;4.75;;;;;;;23.17;43.75;93620.63;5066144;28;20044;-82
2022/07/27 05:43:35;;;;;;;6.57;4.88;;;;;;;23.05;44.13;93616.44;5064261;28;20028;-82
2022/07/27 05:46:00;;;;;;;13.30;5.53;;;;;;;23.30;44.11;93610.06;5069882;28;20055;-82
2022/07/27 05:48:26;;;;;;;7.00;4.82;;;;;;;22.93;44.58;93607.97;5066900;28;20040;-80
2022/07/27 05:50:52;;;;;;;6.60;5.13;;;;;;;22.96;44.52;93635.06;5068195;28;20036;-79
2022/07/27 05:53:17;;;;;;;7.18;5.65;;;;;;;22.86;45.33;93637.81;5071397;28;20415;-81
2022/07/27 05:55:43;;;;;;;10.13;6.18;;;;;;;22.79;45.28;93619.63;5070599;28;20028;-80
2022/07/27 05:58:08;;;;;;;5.13;4.57;;;;;;;23.01;46.09;93614.91;5065901;28;20029;-80
2022/07/27 06:00:34;;;;;;;11.10;6.35;;;;;;;23.06;45.89;93633.47;5070853;28;20133;-79
2022/07/27 06:02:59;;;;;;;8.13;5.85;;;;;;;23.22;45.85;93638.44;5070403;28;20343;-80
2022/07/27 06:05:25;;;;;;;9.52;5.40;;;;;;;23.37;45.04;93637.91;5064638;28;20036;-77
2022/07/27 06:08:02;;;;;;;12.63;6.00;;;;;;;23.12;45.76;93631.91;5067660;28;20036;-80
2022/07/27 06:10:32;;;;;;;11.30;6.45;;;;;;;23.26;45.70;93634.53;5071933;28;20070;-80
2022/07/27 06:13:01;;;;;;;6.78;5.75;;;;;;;23.36;45.49;93641.03;5072124;28;20020;-81
2022/07/27 06:15:27;;;;;;;12.40;5.53;;;;;;;23.31;45.42;93625.19;5068395;28;20031;-82
2022/07/27 06:17:53;;;;;;;7.35;6.18;;;;;;;23.35;44.84;93628.63;5073297;28;20031;-78
2022/07/27 06:20:19;;;;;;;6.85;5.10;;;;;;;23.52;45.55;93633.97;5073674;28;20475;-80
2022/07/27 06:22:49;;;;;;;8.88;6.30;;;;;;;23.75;45.62;93638.84;5069255;28;20498;-80
2022/07/27 06:25:15;;;;;;;11.73;5.65;;;;;;;23.82;43.97;93621.69;5067928;28;20028;-80
2022/07/27 06:27:42;;;;;;;11.60;5.13;;;;;;;24.01;44.44;93640.16;5069206;28;20202;-80
2022/07/27 06:30:08;;;;;;;6.80;5.00;;;;;;;23.72;44.36;93615.19;5069279;28;20202;-79
2022/07/27 06:32:33;;;;;;;8.63;5.72;;;;;;;23.50;45.43;93613.84;5071420;28;20070;-81
2022/07/27 06:35:00;;;;;;;11.57;5.93;;;;;;;23.51;45.61;93643.25;5070903;28;20478;-82
2022/07/27 06:37:28;;;;;;;17.70;6.70;;;;;;;23.40;45.71;93647.22;5069657;28;20034;-81
2022/07/27 06:39:54;;;;;;;5.95;5.10;;;;;;;23.37;46.11;93642.56;5069789;28;20024;-81
2022/07/27 06:42:19;;;;;;;7.63;6.13;;;;;;;23.17;45.86;93638.84;5072558;28;20502;-81
2022/07/27 06:44:44;;;;;;;7.38;5.60;;;;;;;23.36;46.42;93638.34;5069953;28;20032;-78
2022/07/27 06:47:10;;;;;;;9.77;6.20;;;;;;;23.40;45.46;93639.84;5068191;28;20044;-81
2022/07/27 06:49:35;;;;;;;16.20;5.97;;;;;;;23.61;45.38;93641.69;5070455;28;20052;-81
2022/07/27 06:52:01;;;;;;;7.07;5.55;;;;;;;23.55;45.91;93632.41;5069869;28;20487;-81
2022/07/27 06:54:27;;;;;;;6.65;5.72;;;;;;;23.65;45.26;93644.34;5070928;28;20024;-82
2022/07/27 06:56:52;;;;;;;8.32;6.00;;;;;;;23.61;45.43;93636.25;5068638;28;20032;-81
2022/07/27 06:59:18;;;;;;;6.07;5.13;;;;;;;23.82;45.63;93630.63;5101185;27;20517;-81
2022/07/27 07:01:43;;;;;;;9.70;5.70;;;;;;;23.96;44.96;93638.63;5068703;28;20058;-82
2022/07/27 07:04:09;;;;;;;7.00;5.75;;;;;;;24.00;44.79;93647.53;5070670;28;20020;-81
2022/07/27 07:06:34;;;;;;;8.23;5.82;;;;;;;23.60;45.23;93626.56;5070705;28;20144;-81
2022/07/27 07:09:00;;;;;;;8.85;6.55;;;;;;;23.81;44.85;93629.06;5070064;28;20028;-82
2022/07/27 07:11:25;;;;;;;7.40;5.88;;;;;;;23.89;45.13;93641.44;5068321;28;20033;-82
2022/07/27 07:13:50;;;;;;;7.97;5.18;;;;;;;23.99;45.00;93621.56;5068825;28;20126;-81
2022/07/27 07:16:16;;;;;;;7.45;5.93;;;;;;;24.07;44.79;93635.81;5066938;28;20424;-82
2022/07/27 07:18:42;;;;;;;10.90;5.95;;;;;;;24.18;44.63;93619.47;5065465;28;20032;-80
2022/07/27 07:21:07;;;;;;;9.77;5.25;;;;;;;24.39;43.56;93643.69;5061996;28;20027;-82
2022/07/27 07:23:33;;;;;;;8.38;5.68;;;;;;;24.34;44.01;93625.13;5062704;28;20556;-82
2022/07/27 07:25:58;;;;;;;12.40;6.60;;;;;;;24.31;43.73;93617.75;5063831;28;20027;-79
2022/07/27 07:28:24;;;;;;;6.88;5.68;;;;;;;24.25;44.20;93622.09;5057777;28;20524;-78
2022/07/27 07:30:49;;;;;;;8.65;5.70;;;;;;;24.52;43.92;93625.69;5060776;28;20027;-82
2022/07/27 07:33:15;;;;;;;11.13;5.82;;;;;;;24.50;43.58;93614.44;5067086;28;20478;-81
2022/07/27 07:35:41;;;;;;;9.88;5.50;;;;;;;24.26;44.24;93626.34;5059181;28;20039;-81
2022/07/27 07:38:06;;;;;;;9.27;6.20;;;;;;;24.23;44.33;93605.44;5063132;28;20050;-81
2022/07/27 07:40:32;;;;;;;9.07;5.50;;;;;;;24.40;44.12;93615.31;5063924;28;20024;-81
2022/07/27 07:43:00;;;;;;;8.40;5.45;;;;;;;24.75;42.46;93617.66;5067321;28;20550;-82
2022/07/27 07:45:27;;;;;;;8.63;6.15;;;;;;;24.89;42.18;93602.31;5061443;28;20518;-82
2022/07/27 07:47:54;;;;;;;7.88;5.78;;;;;;;24.82;42.22;93625.75;5059107;28;20044;-81
2022/07/27 07:50:20;;;;;;;7.22;5.55;;;;;;;24.97;41.61;93620.88;5061294;28;20012;-79
2022/07/27 07:52:53;;;;;;;12.55;5.97;;;;;;;25.43;41.78;93628.41;5063361;28;20028;-82
2022/07/27 07:55:23;;;;;;;6.72;5.45;;;;;;;25.17;39.95;93604.69;5062972;28;20023;-81
2022/07/27 07:57:49;;;;;;;7.10;5.70;;;;;;;25.20;39.71;93607.34;5062736;28;20084;-81
2022/07/27 08:00:16;;;;;;;5.88;5.07;;;;;;;25.28;39.37;93618.88;5064984;28;20028;-80
2022/07/27 08:02:46;;;;;;;7.18;5.40;;;;;;;25.46;39.20;93619.44;5063362;28;20036;-83
2022/07/27 08:05:13;;;;;;;8.63;5.28;;;;;;;25.27;38.78;93612.66;5065880;28;22260;-82
2022/07/27 08:07:39;;;;;;;7.82;5.20;;;;;;;25.22;37.64;93623.28;5064147;28;20023;-81
2022/07/27 08:10:06;;;;;;;7.20;5.40;;;;;;;25.26;38.30;93615.81;5065954;28;20028;-82
2022/07/27 08:12:32;;;;;;;7.20;5.30;;;;;;;25.37;39.07;93632.03;5061195;28;20025;-80
2022/07/27 08:14:57;;;;;;;11.40;5.63;;;;;;;25.68;38.39;93628.81;5058718;28;20339;-82
2022/07/27 08:17:23;;;;;;;7.75;5.93;;;;;;;25.91;38.16;93616.41;5059362;28;20033;-78
2022/07/27 08:19:48;;;;;;;9.35;6.47;;;;;;;26.20;38.93;93627.59;5059599;28;20490;-82
2022/07/27 08:22:14;;;;;;;7.20;5.05;;;;;;;26.15;38.19;93611.72;5054805;28;20506;-81
2022/07/27 08:24:39;;;;;;;7.22;5.28;;;;;;;26.51;37.46;93627.00;5060084;28;20106;-82
2022/07/27 08:27:05;;;;;;;6.28;5.53;;;;;;;26.64;37.85;93618.22;5060235;28;20573;-82
2022/07/27 08:29:31;;;;;;;10.75;5.78;;;;;;;26.68;38.16;93624.38;5059557;28;20113;-80
2022/07/27 08:31:56;;;;;;;6.93;5.55;;;;;;;26.66;37.69;93616.59;5062256;28;20031;-82
2022/07/27 08:34:21;;;;;;;6.18;4.93;;;;;;;26.42;37.18;93626.78;5058901;28;20494;-81
2022/07/27 08:36:47;;;;;;;6.50;5.80;;;;;;;26.27;37.11;93611.88;5063500;28;20032;-82
2022/07/27 08:39:12;;;;;;;6.50;5.32;;;;;;;25.98;37.41;93627.19;5062999;28;20031;-81
2022/07/27 08:41:41;;;;;;;6.78;5.63;;;;;;;26.20;37.18;93622.91;5065802;28;20450;-81
2022/07/27 08:44:09;;;;;;;9.30;5.55;;;;;;;26.41;37.38;93621.72;5064323;28;20012;-81
2022/07/27 08:46:36;;;;;;;9.32;5.97;;;;;;;26.47;37.28;93604.50;5064938;28;20056;-82
2022/07/27 08:49:01;;;;;;;10.93;5.70;;;;;;;26.70;36.70;93609.09;5064026;28;20629;-82
2022/07/27 08:51:27;;;;;;;8.50;6.10;;;;;;;26.69;36.48;93598.63;5062036;28;20039;-81
2022/07/27 08:53:54;;;;;;;9.75;5.70;;;;;;;26.53;37.07;93605.56;5045113;28;20623;-81
2022/07/27 08:56:20;;;;;;;6.30;5.43;;;;;;;26.79;36.73;93603.09;5063891;28;20031;-80
2022/07/27 08:58:46;;;;;;;6.60;5.20;;;;;;;26.50;37.17;93587.28;5064677;28;20026;-81
2022/07/27 09:01:11;;;;;;;9.85;5.57;;;;;;;26.51;36.41;93588.06;5063545;28;20085;-81
2022/07/27 09:03:36;;;;;;;10.82;5.43;;;;;;;26.54;36.94;93598.16;5046091;28;20118;-79
2022/07/27 09:06:03;;;;;;;6.72;6.03;;;;;;;26.32;36.27;93602.44;5060546;28;20028;-82
2022/07/27 09:08:30;;;;;;;6.72;5.97;;;;;;;26.37;35.87;93597.25;5058387;28;20056;-81
2022/07/27 09:10:58;;;;;;;8.32;5.63;;;;;;;26.29;35.77;93598.59;5062422;28;20059;-81
2022/07/27 09:13:33;;;;;;;14.90;6.18;;;;;;;26.41;36.26;93589.78;5055616;28;20197;-81
2022/07/27 09:16:00;;;;;;;11.48;5.88;;;;;;;26.73;37.60;93593.88;5050676;28;20446;-82
2022/07/27 09:18:28;;;;;;;7.60;6.22;;;;;;;26.97;35.52;93593.34;5057018;28;20453;-82
2022/07/27 09:21:20;;;;;;;9.25;6.20;;;;;;;26.99;37.28;93573.81;5063714;28;20023;-81
2022/07/27 09:23:52;;;;;;;8.30;5.85;;;;;;;27.33;35.47;93598.81;5065246;28;20542;-79
2022/07/27 09:26:23;;;;;;;8.85;6.13;;;;;;;27.10;36.59;93576.34;5067723;28;20135;-80
2022/07/27 09:28:56;;;;;;;6.45;5.75;;;;;;;27.33;38.29;93593.34;5063119;28;20605;-81
2022/07/27 09:31:21;;;;;;;6.13;5.53;;;;;;;27.07;35.78;93569.78;5063399;28;20315;-81
2022/07/27 09:33:53;;;;;;;9.27;6.20;;;;;;;27.31;34.04;93568.44;5067077;28;20040;-82
2022/07/27 09:36:21;;;;;;;7.15;6.40;;;;;;;27.39;34.11;93564.34;5059544;28;20055;-82
2022/07/27 09:39:05;;;;;;;7.38;5.93;;;;;;;27.59;34.14;93574.44;5066717;28;20335;-82
2022/07/27 09:41:45;;;;;;;8.55;6.53;;;;;;;27.53;34.55;93574.16;5065271;28;20063;-82
2022/07/27 09:44:10;;;;;;;7.25;5.63;;;;;;;27.68;34.58;93572.66;5068481;28;20112;-82
2022/07/27 09:46:38;;;;;;;9.40;5.75;;;;;;;27.75;36.43;93586.16;5064684;28;20389;-81
2022/07/27 09:49:05;;;;;;;16.88;5.82;;;;;;;27.90;35.03;93586.56;5068664;28;20604;-82
2022/07/27 09:51:31;;;;;;;7.50;5.95;;;;;;;27.95;33.56;93583.31;5066664;28;20021;-82
2022/07/27 09:53:58;;;;;;;5.93;5.30;;;;;;;27.99;33.46;93572.28;5067383;28;20024;-81
2022/07/27 09:56:26;;;;;;;7.53;5.80;;;;;;;27.46;33.60;93568.09;5066598;28;20112;-82
2022/07/27 09:58:55;;;;;;;11.38;6.43;;;;;;;27.57;35.13;93576.84;5073217;28;20028;-82
2022/07/27 10:01:29;;;;;;;7.70;6.18;;;;;;;27.58;33.22;93564.72;5065677;28;20154;-80
2022/07/27 10:03:56;;;;;;;;;;;;;;;27.80;33.55;93571.19;5069131;28;20520;-81
2022/07/27 10:06:23;;;;;;;7.15;5.68;;;;;;;27.67;32.63;93554.72;5058028;28;20585;-81
2022/07/27 10:08:51;;;;;;;8.88;5.75;;;;;;;27.86;32.28;93555.81;5063663;28;20028;-81
2022/07/27 10:11:18;;;;;;;19.13;6.80;;;;;;;28.12;32.14;93571.16;5066017;28;20035;-82
2022/07/27 10:13:44;;;;;;;6.43;5.45;;;;;;;28.12;32.01;93571.16;5065119;28;20021;-81
2022/07/27 10:16:24;;;;;;;8.90;6.75;;;;;;;28.14;31.58;93560.56;5067069;28;20032;-81
2022/07/27 10:19:18;;;;;;;7.93;6.38;;;;;;;28.23;31.82;93571.66;5064638;28;20113;-81
2022/07/27 10:21:46;;;;;;;9.82;6.88;;;;;;;28.31;31.67;93571.44;5062086;28;20028;-81
2022/07/27 10:24:35;;;;;;;7.57;6.47;;;;;;;28.29;32.15;93551.97;5063098;28;20039;-81
2022/07/27 10:27:21;;;;;;;8.20;6.18;;;;;;;28.51;31.49;93564.63;5060863;28;20028;-81
2022/07/27 10:29:50;;;;;;;6.95;6.10;;;;;;;28.59;31.47;93559.75;5067757;28;21551;-78
2022/07/27 10:32:31;;;;;;;8.10;5.43;;;;;;;28.58;31.82;93544.53;5061185;28;20057;-81
2022/07/27 10:34:58;;;;;;;8.18;6.65;;;;;;;28.82;30.31;93562.22;5070908;28;20127;-79
2022/07/27 10:37:32;;;;;;;7.10;6.07;;;;;;;28.61;33.06;93552.63;5064398;28;20480;-82
2022/07/27 10:42:45;;;;;;;7.18;6.47;;;;;;;28.89;32.20;93559.25;5068226;28;20141;-80
2022/07/27 10:45:13;;;;;;;7.80;6.35;;;;;;;28.89;30.00;93551.03;5066026;28;20028;-82
2022/07/27 10:47:44;;;;;;;8.70;6.70;;;;;;;28.88;30.97;93554.25;5066625;28;20039;-82
2022/07/27 10:50:16;;;;;;;8.05;6.63;;;;;;;28.98;30.77;93548.44;5064120;28;20463;-82
2022/07/27 10:52:49;;;;;;;11.27;6.53;;;;;;;29.04;32.90;93554.91;5060485;28;20544;-81
2022/07/27 10:55:30;;;;;;;6.50;5.90;;;;;;;29.13;29.58;93554.25;5056905;28;20063;-81
2022/07/27 10:57:56;;;;;;;8.23;7.13;;;;;;;29.18;28.66;93550.25;5062976;28;20119;-81
2022/07/27 11:00:49;;;;;;;9.85;7.10;;;;;;;29.02;33.67;93549.09;5058796;28;20598;-78
2022/07/27 11:03:25;;;;;;;13.13;7.75;;;;;;;28.79;30.30;93535.72;5057972;28;20475;-82
2022/07/27 11:05:54;;;;;;;7.75;6.65;;;;;;;28.89;29.83;93522.94;5059892;28;20085;-81
2022/07/27 11:08:24;;;;;;;13.65;6.32;;;;;;;28.82;33.37;93534.84;5055711;28;20395;-82
2022/07/27 11:10:50;;;;;;;6.82;6.13;;;;;;;28.72;31.34;93529.69;5054164;28;20490;-82
2022/07/27 11:13:20;;;;;;;7.82;6.88;;;;;;;28.40;32.45;93503.25;5059805;28;20411;-81
2022/07/27 11:16:06;;;;;;;8.32;6.57;;;;;;;28.67;31.87;93525.53;5061858;28;20024;-81
2022/07/27 11:18:37;;;;;;;7.40;6.30;;;;;;;28.86;30.23;93519.09;5061545;28;20021;-82
2022/07/27 11:21:30;;;;;;;7.93;7.13;;;;;;;29.04;30.64;93521.28;5053179;28;20390;-80
2022/07/27 11:23:59;;;;;;;9.57;7.40;;;;;;;29.17;31.35;93505.66;5065784;28;20020;-82
2022/07/27 11:26:27;;;;;;;7.93;6.07;;;;;;;29.33;34.61;93505.50;5064012;28;20386;-81
2022/07/27 11:28:53;;;;;;;9.35;6.70;;;;;;;28.78;29.83;93467.75;5059634;28;21004;-81
2022/07/27 11:31:19;;;;;;;7.60;6.50;;;;;;;29.10;30.23;93505.84;5058767;28;20854;-80
2022/07/27 11:33:50;;;;;;;7.63;6.50;;;;;;;29.15;29.55;93486.13;5063365;28;20068;-82
2022/07/27 11:36:16;;;;;;;9.82;6.45;;;;;;;29.29;29.73;93501.34;5062254;28;20154;-81